Time;durP1;ratioP1;P1;durP2;ratioP2;P2;SDS_P1;SDS_P2;PMS_P1;PMS_P2;Temp;Humidity;BMP_temperature;BMP_pressure;BME280_temperature;BME280_humidity;BME280_pressure;Samples;Min_cycle;Max_cycle;Signal;HPM_P1;HPM_P2
2023/01/28 00:01:14;;;;;;;2.10;0.85;;;2.70;99.90;;;;;;5002437;28;20045;-74
2023/01/28 00:03:43;;;;;;;1.40;0.70;;;2.70;99.90;;;;;;5024033;28;20025;-76
2023/01/28 00:06:12;;;;;;;1.30;0.80;;;2.70;99.90;;;;;;5023862;28;20034;-73
2023/01/28 00:08:39;;;;;;;2.42;1.00;;;2.60;99.90;;;;;;5004842;28;20029;-73
2023/01/28 00:11:09;;;;;;;3.83;1.17;;;2.60;99.90;;;;;;5023843;28;20029;-74
2023/01/28 00:13:35;;;;;;;2.77;0.90;;;2.60;99.90;;;;;;5025365;28;20077;-72
2023/01/28 00:16:07;;;;;;;3.58;1.10;;;2.70;99.90;;;;;;5020840;28;20079;-72
2023/01/28 00:18:33;;;;;;;4.60;1.10;;;2.60;99.90;;;;;;5005327;28;20056;-71
2023/01/28 00:21:25;;;;;;;2.55;1.10;;;2.70;99.90;;;;;;5022445;28;20087;-72
2023/01/28 00:23:53;;;;;;;3.13;1.30;;;2.60;99.90;;;;;;5004497;28;20095;-72
2023/01/28 00:26:20;;;;;;;1.73;0.88;;;2.70;99.90;;;;;;4987053;28;20033;-72
2023/01/28 00:28:49;;;;;;;2.50;0.90;;;2.70;99.90;;;;;;5028646;28;20520;-72
2023/01/28 00:31:17;;;;;;;1.55;0.75;;;2.70;99.90;;;;;;5025176;28;20025;-72
2023/01/28 00:33:45;;;;;;;4.25;1.20;;;2.60;99.90;;;;;;5009589;28;20116;-72
2023/01/28 00:36:12;;;;;;;1.52;0.93;;;2.70;99.90;;;;;;5028889;28;20069;-72
2023/01/28 00:38:38;;;;;;;1.75;0.90;;;2.70;99.90;;;;;;5008384;28;20021;-72
2023/01/28 00:41:13;;;;;;;1.75;0.93;;;2.60;99.90;;;;;;5009727;28;20556;-71
2023/01/28 00:43:40;;;;;;;2.38;0.95;;;2.60;99.90;;;;;;5028074;28;20213;-72
2023/01/28 00:46:07;;;;;;;1.63;0.90;;;2.60;99.90;;;;;;5028108;28;20026;-72
2023/01/28 00:48:33;;;;;;;1.55;0.75;;;2.60;99.90;;;;;;5009648;28;20040;-71
2023/01/28 00:50:59;;;;;;;3.17;1.15;;;2.60;99.90;;;;;;5007680;28;20068;-72
2023/01/28 00:53:25;;;;;;;3.25;0.90;;;2.60;99.90;;;;;;5030612;28;20069;-71
2023/01/28 00:55:51;;;;;;;2.70;0.82;;;2.60;99.90;;;;;;5026819;28;20082;-72
2023/01/28 00:58:17;;;;;;;2.22;0.93;;;2.60;99.90;;;;;;5046189;28;20033;-71
2023/01/28 01:00:43;;;;;;;2.13;0.82;;;2.60;99.90;;;;;;5026460;28;20044;-75
2023/01/28 01:03:09;;;;;;;4.65;1.10;;;2.60;99.90;;;;;;5030510;28;20033;-73
2023/01/28 01:05:35;;;;;;;1.85;0.90;;;2.60;99.90;;;;;;5028504;28;20025;-71
2023/01/28 01:08:01;;;;;;;2.83;0.70;;;2.60;99.90;;;;;;5043787;28;20041;-76
2023/01/28 01:10:27;;;;;;;2.78;0.80;;;2.50;99.90;;;;;;5006346;28;20025;-74
2023/01/28 01:12:52;;;;;;;2.17;1.17;;;2.60;99.90;;;;;;5044904;28;20029;-73
2023/01/28 01:15:19;;;;;;;3.55;0.93;;;2.50;99.90;;;;;;5034035;28;20037;-73
2023/01/28 01:17:47;;;;;;;1.27;0.85;;;2.50;99.90;;;;;;5028002;28;20685;-74
2023/01/28 01:20:20;;;;;;;2.60;1.00;;;2.50;99.90;;;;;;5024751;28;20073;-73
2023/01/28 01:22:47;;;;;;;4.03;0.90;;;2.50;99.90;;;;;;5025943;28;20033;-73
2023/01/28 01:25:14;;;;;;;2.72;0.82;;;2.50;99.90;;;;;;5007973;28;20037;-71
2023/01/28 01:27:40;;;;;;;1.48;0.80;;;2.50;99.90;;;;;;5009425;28;20037;-72
2023/01/28 01:30:08;;;;;;;1.33;0.70;;;2.50;99.90;;;;;;5006703;28;20053;-72
2023/01/28 01:32:35;;;;;;;1.92;0.80;;;2.50;99.90;;;;;;5026469;28;20929;-73
2023/01/28 01:35:01;;;;;;;1.70;0.60;;;2.50;99.90;;;;;;5025599;28;20087;-72
2023/01/28 01:37:27;;;;;;;4.25;1.10;;;2.50;99.90;;;;;;5024776;28;20104;-72
2023/01/28 01:39:53;;;;;;;3.13;0.90;;;2.50;99.90;;;;;;5022442;28;20152;-74
2023/01/28 01:42:19;;;;;;;2.42;1.00;;;2.50;99.90;;;;;;5023574;28;20026;-74
2023/01/28 01:45:12;;;;;;;2.45;1.30;;;2.50;99.90;;;;;;5026769;28;20100;-72
2023/01/28 01:48:04;;;;;;;2.90;1.13;;;2.50;99.90;;;;;;5009622;28;20068;-71
2023/01/28 01:50:36;;;;;;;3.08;1.17;;;2.50;99.90;;;;;;5021068;28;20037;-71
2023/01/28 01:53:10;;;;;;;2.28;0.90;;;2.50;99.90;;;;;;5042245;28;20040;-71
2023/01/28 01:55:40;;;;;;;2.35;0.85;;;2.50;99.90;;;;;;5027082;28;20018;-71
2023/01/28 01:58:13;;;;;;;2.33;1.25;;;2.50;99.90;;;;;;5028202;28;20359;-71
2023/01/28 02:00:41;;;;;;;6.95;1.20;;;2.50;99.90;;;;;;5027960;28;20109;-71
2023/01/28 02:03:11;;;;;;;2.10;0.98;;;2.50;99.90;;;;;;5008507;28;20032;-72
2023/01/28 02:05:38;;;;;;;2.50;1.08;;;2.40;99.90;;;;;;5009269;28;20029;-74
2023/01/28 02:08:19;;;;;;;3.75;0.95;;;2.40;99.90;;;;;;5026769;28;20029;-72
2023/01/28 02:10:53;;;;;;;2.60;0.80;;;2.40;99.90;;;;;;5009116;28;20116;-72
2023/01/28 02:13:24;;;;;;;2.35;0.98;;;2.40;99.90;;;;;;5011075;28;20103;-72
2023/01/28 02:15:51;;;;;;;4.03;1.10;;;2.40;99.90;;;;;;5009216;28;20041;-76
2023/01/28 02:18:16;;;;;;;2.03;0.90;;;2.30;99.90;;;;;;5030194;28;20068;-74
2023/01/28 02:20:54;;;;;;;2.83;0.90;;;2.30;99.90;;;;;;5008925;28;20583;-73
2023/01/28 02:23:39;;;;;;;1.73;0.80;;;2.30;99.90;;;;;;5027345;28;20026;-72
2023/01/28 02:26:24;;;;;;;2.15;1.00;;;2.30;99.90;;;;;;5027380;28;20029;-72
2023/01/28 02:28:59;;;;;;;4.03;0.90;;;2.30;99.90;;;;;;5010635;28;20036;-72
2023/01/28 02:31:35;;;;;;;1.60;1.00;;;2.30;99.90;;;;;;5025188;28;20029;-72
2023/01/28 02:34:22;;;;;;;2.13;0.90;;;2.30;99.90;;;;;;5027021;28;20038;-75
2023/01/28 02:37:02;;;;;;;3.45;1.00;;;2.30;99.90;;;;;;5028755;28;20401;-74
2023/01/28 02:39:34;;;;;;;4.80;1.10;;;2.40;99.90;;;;;;5028425;28;20477;-72
2023/01/28 02:42:12;;;;;;;4.30;1.50;;;2.30;99.90;;;;;;5024122;28;20040;-73
2023/01/28 02:44:38;;;;;;;2.78;1.52;;;2.30;99.90;;;;;;5027037;28;20017;-73
2023/01/28 02:50:06;;;;;;;2.75;1.52;;;2.30;99.90;;;;;;5027889;28;20044;-72
2023/01/28 02:56:19;;;;;;;3.67;1.60;;;2.30;99.90;;;;;;5004786;28;20044;-72
2023/01/28 02:59:29;;;;;;;4.78;1.63;;;2.20;99.90;;;;;;5043084;28;20460;-73
2023/01/28 03:02:00;;;;;;;5.35;1.23;;;2.30;99.90;;;;;;5025026;28;20021;-74
2023/01/28 03:05:05;;;;;;;2.42;1.10;;;2.30;99.90;;;;;;5007032;28;20026;-74
2023/01/28 03:07:34;;;;;;;3.08;1.30;;;2.40;99.90;;;;;;5024991;28;20041;-73
2023/01/28 03:10:04;;;;;;;3.30;1.65;;;2.30;99.90;;;;;;5027123;28;20076;-72
2023/01/28 03:38:22;;;;;;;3.80;1.13;;;2.30;99.90;;;;;;5029069;28;20244;-72
2023/01/28 03:40:55;;;;;;;4.07;1.60;;;2.30;99.90;;;;;;5013356;28;20036;-72
2023/01/28 03:43:22;;;;;;;11.15;1.95;;;2.30;99.90;;;;;;5024490;28;20029;-72
2023/01/28 03:45:50;;;;;;;4.05;1.65;;;2.30;99.90;;;;;;5007107;28;20579;-73
2023/01/28 03:48:20;;;;;;;3.33;1.65;;;2.30;99.90;;;;;;5006684;28;20094;-72
2023/01/28 03:50:47;;;;;;;3.38;1.60;;;2.30;99.90;;;;;;5006082;28;20140;-74
2023/01/28 03:53:14;;;;;;;4.22;1.98;;;2.30;99.90;;;;;;5023416;28;20033;-75
2023/01/28 03:55:41;;;;;;;4.82;1.75;;;2.30;99.90;;;;;;5038649;28;20029;-73
2023/01/28 03:58:08;;;;;;;4.85;2.33;;;2.20;99.90;;;;;;5026006;28;20091;-75
2023/01/28 04:00:40;;;;;;;5.18;2.38;;;2.20;99.90;;;;;;5024916;28;20038;-75
2023/01/28 04:03:16;;;;;;;5.25;1.85;;;2.20;99.90;;;;;;5026063;28;20031;-74
2023/01/28 04:05:56;;;;;;;3.40;1.60;;;2.10;99.90;;;;;;5046346;28;20439;-73
2023/01/28 04:08:23;;;;;;;5.13;2.00;;;2.10;99.90;;;;;;5024788;28;20048;-76
2023/01/28 04:10:50;;;;;;;2.45;1.60;;;2.10;99.90;;;;;;5025567;28;20080;-75
2023/01/28 04:13:17;;;;;;;3.58;1.85;;;2.00;99.90;;;;;;5024017;28;20063;-73
2023/01/28 04:15:44;;;;;;;3.88;1.90;;;2.10;99.90;;;;;;5024271;28;20701;-74
2023/01/28 04:18:10;;;;;;;5.40;1.98;;;2.10;99.90;;;;;;5024133;28;20099;-74
2023/01/28 04:20:36;;;;;;;5.80;2.20;;;2.00;99.90;;;;;;5004695;28;20158;-75
2023/01/28 04:23:03;;;;;;;5.38;2.20;;;2.00;99.90;;;;;;5002377;28;20076;-73
2023/01/28 04:25:30;;;;;;;3.95;2.22;;;1.90;99.90;;;;;;5022099;28;20053;-72
2023/01/28 04:27:56;;;;;;;6.00;2.00;;;2.00;99.90;;;;;;5024037;28;20045;-74
2023/01/28 04:30:23;;;;;;;5.20;2.45;;;2.00;99.90;;;;;;5023979;28;20032;-74
2023/01/28 04:32:52;;;;;;;4.93;1.75;;;2.00;99.90;;;;;;5025300;28;20026;-72
2023/01/28 04:35:18;;;;;;;4.35;1.80;;;1.90;99.90;;;;;;5012990;28;20084;-71
2023/01/28 04:37:45;;;;;;;3.45;2.10;;;1.90;99.90;;;;;;5030584;28;20029;-73
2023/01/28 04:40:11;;;;;;;4.05;2.10;;;1.90;99.90;;;;;;5004618;28;20526;-70
2023/01/28 04:42:37;;;;;;;2.67;1.73;;;1.90;99.90;;;;;;5007238;28;20025;-72
2023/01/28 04:45:04;;;;;;;4.65;2.20;;;1.80;99.90;;;;;;5007764;28;20030;-71
2023/01/28 04:47:30;;;;;;;7.43;2.38;;;1.80;99.90;;;;;;5023589;28;20036;-71
2023/01/28 04:49:56;;;;;;;3.10;1.83;;;1.80;99.90;;;;;;5025160;28;20120;-73
2023/01/28 04:52:21;;;;;;;4.22;2.28;;;1.80;99.90;;;;;;5024806;28;20076;-71
2023/01/28 04:54:49;;;;;;;4.13;2.38;;;1.80;99.90;;;;;;5041583;28;20083;-71
2023/01/28 04:57:15;;;;;;;5.43;2.20;;;1.80;99.90;;;;;;5022049;28;20095;-70
2023/01/28 04:59:42;;;;;;;6.15;2.80;;;1.70;99.90;;;;;;5026798;28;20470;-71
2023/01/28 05:02:07;;;;;;;5.10;2.30;;;1.70;99.90;;;;;;5009462;28;20022;-71
2023/01/28 05:04:33;;;;;;;4.55;2.25;;;1.70;99.90;;;;;;5022506;28;20040;-73
2023/01/28 05:06:59;;;;;;;6.30;2.08;;;1.60;99.90;;;;;;5023336;28;20057;-71
2023/01/28 05:09:25;;;;;;;6.60;2.67;;;1.70;99.90;;;;;;5005494;28;20029;-74
2023/01/28 05:11:50;;;;;;;4.93;2.53;;;1.70;99.90;;;;;;5037003;28;20095;-72
2023/01/28 05:14:16;;;;;;;4.05;2.10;;;1.70;99.90;;;;;;5040656;28;20092;-71
2023/01/28 05:16:43;;;;;;;7.05;2.72;;;1.60;99.90;;;;;;4993589;28;20061;-72
2023/01/28 05:19:08;;;;;;;6.45;2.70;;;1.60;99.90;;;;;;5027059;28;20053;-73
2023/01/28 05:21:34;;;;;;;5.55;3.05;;;1.60;99.90;;;;;;5009210;28;20152;-71
2023/01/28 05:24:00;;;;;;;4.78;2.45;;;1.60;99.90;;;;;;5008521;28;20033;-71
2023/01/28 05:26:26;;;;;;;6.60;2.63;;;1.60;99.90;;;;;;5026178;28;20025;-71
2023/01/28 05:28:52;;;;;;;4.32;3.00;;;1.50;99.90;;;;;;5025190;28;20109;-71
2023/01/28 05:31:17;;;;;;;6.03;3.22;;;1.50;99.90;;;;;;5007707;28;20029;-71
2023/01/28 05:33:43;;;;;;;5.95;3.17;;;1.50;99.90;;;;;;5041339;28;20240;-71
2023/01/28 05:36:09;;;;;;;6.72;2.75;;;1.50;99.90;;;;;;5041487;28;20034;-71
2023/01/28 05:38:34;;;;;;;6.10;3.10;;;1.50;99.90;;;;;;5027562;28;20584;-72
2023/01/28 05:41:00;;;;;;;4.93;3.20;;;1.40;99.90;;;;;;5042747;28;20025;-72
2023/01/28 05:43:27;;;;;;;8.40;3.45;;;1.70;99.90;;;;;;5025946;28;20087;-75
2023/01/28 05:45:53;;;;;;;5.93;2.83;;;1.60;99.90;;;;;;5024771;28;20033;-72
2023/01/28 05:48:18;;;;;;;5.07;2.95;;;1.50;99.90;;;;;;5026635;28;20037;-72
2023/01/28 05:50:46;;;;;;;5.95;3.00;;;1.40;99.90;;;;;;5037222;28;20546;-71
2023/01/28 05:53:13;;;;;;;7.68;3.50;;;1.40;99.90;;;;;;5027027;28;20509;-72
2023/01/28 05:55:39;;;;;;;10.07;3.10;;;1.30;99.90;;;;;;5012059;28;20072;-71
2023/01/28 05:58:05;;;;;;;6.25;3.63;;;1.30;99.90;;;;;;5035193;28;20060;-71
2023/01/28 06:00:31;;;;;;;10.90;3.97;;;1.30;99.90;;;;;;5027956;28;20099;-76
2023/01/28 06:02:57;;;;;;;6.45;3.40;;;1.30;99.90;;;;;;5009460;28;20032;-74
2023/01/28 06:05:23;;;;;;;6.10;4.00;;;1.30;99.90;;;;;;5028387;28;20026;-73
2023/01/28 06:07:49;;;;;;;6.28;3.92;;;1.20;99.90;;;;;;5009211;28;20026;-75
2023/01/28 06:10:16;;;;;;;6.57;3.15;;;1.20;99.90;;;;;;5028360;28;20048;-73
2023/01/28 06:12:43;;;;;;;4.82;3.50;;;1.20;99.90;;;;;;5026002;28;20963;-72
2023/01/28 06:15:09;;;;;;;9.27;4.30;;;1.20;99.90;;;;;;5027405;28;20033;-72
2023/01/28 06:17:35;;;;;;;5.47;3.95;;;1.20;99.90;;;;;;5019277;28;20551;-71
2023/01/28 06:20:00;;;;;;;5.78;3.45;;;1.10;99.90;;;;;;5022142;28;20025;-71
2023/01/28 06:22:26;;;;;;;9.25;4.05;;;1.10;99.90;;;;;;5009311;28;20101;-72
2023/01/28 06:24:52;;;;;;;10.02;4.63;;;1.10;99.90;;;;;;5025009;28;20061;-72
2023/01/28 06:27:19;;;;;;;7.97;4.00;;;1.10;99.90;;;;;;5000336;28;20080;-72
2023/01/28 06:29:44;;;;;;;5.80;3.50;;;1.10;99.90;;;;;;5021290;28;20617;-74
2023/01/28 06:32:10;;;;;;;6.93;4.40;;;1.10;99.90;;;;;;5025218;28;20041;-72
2023/01/28 06:34:37;;;;;;;4.97;4.13;;;1.10;99.90;;;;;;5029534;28;20401;-73
2023/01/28 06:37:04;;;;;;;9.45;4.38;;;1.20;99.90;;;;;;5028173;28;20048;-73
2023/01/28 06:39:32;;;;;;;7.47;4.65;;;1.20;99.90;;;;;;5026615;28;20036;-73
2023/01/28 06:41:58;;;;;;;8.02;4.13;;;1.20;99.90;;;;;;5027223;28;20112;-72
2023/01/28 06:44:23;;;;;;;10.05;4.78;;;1.20;99.90;;;;;;5027053;28;20030;-74
2023/01/28 06:46:49;;;;;;;6.45;4.60;;;1.10;99.90;;;;;;5026666;28;20045;-73
2023/01/28 06:49:15;;;;;;;6.85;4.72;;;1.10;99.90;;;;;;5026358;28;20063;-75
2023/01/28 06:51:41;;;;;;;7.90;4.78;;;1.10;99.90;;;;;;5006024;28;20026;-74
2023/01/28 06:54:07;;;;;;;7.80;5.43;;;1.10;99.90;;;;;;5028509;28;20091;-72
2023/01/28 06:56:33;;;;;;;8.10;5.10;;;1.10;99.90;;;;;;5024768;28;20033;-75
2023/01/28 06:58:59;;;;;;;8.52;6.38;;;1.10;99.90;;;;;;5025079;28;20041;-73
2023/01/28 07:01:27;;;;;;;7.90;5.18;;;1.10;99.90;;;;;;5024581;28;20064;-72
2023/01/28 07:03:53;;;;;;;7.75;5.47;;;1.00;99.90;;;;;;5008103;28;20029;-74
2023/01/28 07:06:19;;;;;;;9.15;5.55;;;1.00;99.90;;;;;;5025959;28;20452;-73
2023/01/28 07:08:46;;;;;;;8.52;5.85;;;0.90;99.90;;;;;;5007962;28;20033;-74
2023/01/28 07:11:12;;;;;;;9.70;6.32;;;0.90;99.90;;;;;;5037504;28;20087;-72
2023/01/28 07:13:38;;;;;;;12.27;5.55;;;1.00;99.90;;;;;;5022375;28;20497;-72
2023/01/28 07:16:07;;;;;;;11.68;5.53;;;0.90;99.90;;;;;;5026080;28;20851;-72
2023/01/28 07:18:32;;;;;;;6.78;5.50;;;0.90;99.90;;;;;;5011549;28;21336;-72
2023/01/28 07:21:00;;;;;;;11.05;6.15;;;0.90;99.90;;;;;;5010914;28;20033;-72
2023/01/28 07:23:25;;;;;;;10.05;5.22;;;0.80;99.90;;;;;;5046500;28;20026;-72
2023/01/28 07:25:51;;;;;;;8.63;5.78;;;0.80;99.90;;;;;;5025595;28;20032;-73
2023/01/28 07:28:20;;;;;;;13.57;6.22;;;0.80;99.90;;;;;;5025958;28;20481;-73
2023/01/28 07:30:49;;;;;;;11.48;7.07;;;0.80;99.90;;;;;;5020865;28;20033;-75
2023/01/28 07:33:16;;;;;;;10.18;6.20;;;0.70;99.90;;;;;;5040246;28;20044;-72
2023/01/28 07:35:43;;;;;;;9.40;6.53;;;0.70;99.90;;;;;;5004348;28;20033;-72
2023/01/28 07:38:09;;;;;;;12.63;7.00;;;0.70;99.90;;;;;;5009829;28;20130;-72
2023/01/28 07:40:35;;;;;;;14.27;6.90;;;0.70;99.90;;;;;;5025054;28;20096;-73
2023/01/28 07:43:01;;;;;;;12.70;7.03;;;0.70;99.90;;;;;;5014715;28;20049;-73
2023/01/28 07:45:29;;;;;;;13.70;7.15;;;0.70;99.90;;;;;;5025222;28;20857;-72
2023/01/28 07:47:56;;;;;;;12.02;7.43;;;0.70;99.90;;;;;;5007523;28;21748;-72
2023/01/28 07:50:23;;;;;;;13.20;7.28;;;0.70;99.90;;;;;;5023653;28;20464;-72
2023/01/28 07:52:49;;;;;;;10.32;7.35;;;0.60;99.90;;;;;;5017901;28;20040;-72
2023/01/28 07:55:15;;;;;;;14.07;7.15;;;0.70;99.90;;;;;;5041459;28;20521;-72
2023/01/28 07:57:53;;;;;;;10.57;7.35;;;0.70;99.90;;;;;;5028388;28;20029;-75
2023/01/28 08:00:20;;;;;;;12.23;7.03;;;0.70;99.90;;;;;;5025634;28;20037;-74
2023/01/28 08:02:47;;;;;;;15.18;8.30;;;0.70;99.90;;;;;;5026673;28;20072;-75
2023/01/28 08:05:15;;;;;;;12.27;7.78;;;0.60;99.90;;;;;;5010523;28;20396;-73
2023/01/28 08:07:41;;;;;;;14.10;7.93;;;0.60;99.90;;;;;;5023946;28;20044;-73
2023/01/28 08:10:07;;;;;;;10.80;7.38;;;0.60;99.90;;;;;;5021674;28;20041;-75
2023/01/28 08:12:33;;;;;;;13.85;8.18;;;0.60;99.90;;;;;;5018927;28;20232;-78
2023/01/28 08:15:01;;;;;;;13.07;8.15;;;0.60;99.90;;;;;;5025646;28;20040;-74
2023/01/28 08:17:27;;;;;;;12.13;7.43;;;0.60;99.90;;;;;;5023736;28;20029;-72
2023/01/28 08:19:54;;;;;;;11.75;7.88;;;0.60;99.90;;;;;;5038709;28;20510;-74
2023/01/28 08:22:24;;;;;;;11.85;7.35;;;0.60;99.90;;;;;;5021520;28;20033;-73
2023/01/28 08:24:50;;;;;;;12.15;6.95;;;0.50;99.90;;;;;;5021222;28;20021;-72
2023/01/28 08:27:16;;;;;;;11.10;7.43;;;0.60;99.90;;;;;;5032336;28;20091;-73
2023/01/28 08:29:42;;;;;;;14.48;7.57;;;0.60;99.90;;;;;;5017915;28;20109;-73
2023/01/28 08:32:09;;;;;;;14.30;7.97;;;0.60;99.90;;;;;;5001513;28;20112;-72
2023/01/28 08:34:35;;;;;;;15.57;8.23;;;0.60;99.90;;;;;;5004473;28;20043;-71
2023/01/28 08:37:04;;;;;;;14.38;8.25;;;0.60;99.90;;;;;;5015887;28;20042;-73
2023/01/28 08:39:31;;;;;;;13.93;7.45;;;0.60;99.90;;;;;;5023628;28;20126;-74
2023/01/28 08:41:57;;;;;;;13.38;8.27;;;0.60;99.90;;;;;;5024345;28;20040;-76
2023/01/28 08:44:22;;;;;;;15.45;8.43;;;0.70;99.90;;;;;;5004705;28;20025;-75
2023/01/28 08:46:49;;;;;;;11.95;8.20;;;0.60;99.90;;;;;;5021085;28;20089;-75
2023/01/28 08:49:15;;;;;;;13.15;7.18;;;0.60;99.90;;;;;;5027287;28;20064;-78
2023/01/28 08:51:41;;;;;;;12.20;7.90;;;0.70;99.90;;;;;;5008677;28;20502;-74
2023/01/28 08:54:06;;;;;;;20.05;8.40;;;0.70;99.90;;;;;;5023545;28;20033;-75
2023/01/28 08:56:33;;;;;;;12.82;7.90;;;0.70;99.90;;;;;;4997046;28;20053;-75
2023/01/28 08:58:59;;;;;;;14.90;8.80;;;0.80;99.90;;;;;;5020179;28;20520;-76
2023/01/28 09:01:28;;;;;;;11.43;8.07;;;0.80;99.90;;;;;;5032794;28;20029;-75
2023/01/28 09:03:54;;;;;;;16.98;8.38;;;0.90;99.90;;;;;;5020637;28;20393;-72
2023/01/28 09:06:19;;;;;;;15.05;7.60;;;0.90;99.90;;;;;;5005066;28;20071;-73
2023/01/28 09:08:45;;;;;;;12.25;8.38;;;0.90;99.90;;;;;;5022615;28;20033;-72
2023/01/28 09:11:12;;;;;;;15.18;7.93;;;0.90;99.90;;;;;;5038671;28;20052;-73
2023/01/28 09:13:38;;;;;;;14.68;8.75;;;1.00;99.90;;;;;;5025987;28;20061;-73
2023/01/28 09:16:05;;;;;;;14.93;8.93;;;1.00;99.90;;;;;;4994888;28;20374;-76
2023/01/28 09:18:31;;;;;;;12.05;8.35;;;1.00;99.90;;;;;;5026043;28;20434;-73
2023/01/28 09:20:57;;;;;;;13.95;8.68;;;1.10;99.90;;;;;;5032203;28;20075;-76
2023/01/28 09:23:23;;;;;;;11.05;7.50;;;1.10;99.90;;;;;;5013594;28;20041;-76
2023/01/28 09:25:49;;;;;;;13.25;7.70;;;1.20;99.90;;;;;;5029809;28;20029;-72
2023/01/28 09:28:15;;;;;;;10.38;7.53;;;1.30;99.90;;;;;;5026619;28;20081;-72
2023/01/28 09:30:40;;;;;;;11.63;7.95;;;1.30;99.90;;;;;;5041299;28;20033;-72
2023/01/28 09:33:06;;;;;;;10.30;7.22;;;1.30;99.90;;;;;;5027697;28;20416;-72
2023/01/28 09:35:33;;;;;;;11.02;7.60;;;1.40;99.90;;;;;;5006237;28;21502;-72
2023/01/28 09:38:00;;;;;;;11.90;7.68;;;1.40;99.90;;;;;;5004804;28;20065;-71
2023/01/28 09:40:41;;;;;;;14.27;7.97;;;1.40;99.90;;;;;;5027236;28;20059;-75
2023/01/28 09:43:16;;;;;;;11.45;7.03;;;1.50;99.90;;;;;;5015178;28;20029;-76
2023/01/28 09:45:49;;;;;;;11.32;7.43;;;1.50;99.90;;;;;;5024292;28;20112;-73
2023/01/28 09:48:29;;;;;;;12.98;7.63;;;1.50;99.90;;;;;;5020152;28;20094;-73
2023/01/28 09:50:56;;;;;;;10.10;7.10;;;1.50;99.90;;;;;;5015268;28;20104;-76
2023/01/28 09:53:32;;;;;;;10.57;7.30;;;1.50;99.90;;;;;;5025637;28;20038;-75
2023/01/28 09:56:04;;;;;;;12.88;7.03;;;1.50;99.90;;;;;;5021392;28;20030;-73
2023/01/28 09:58:31;;;;;;;15.32;7.00;;;1.50;99.90;;;;;;5019960;28;20350;-72
2023/01/28 10:01:01;;;;;;;10.57;6.40;;;1.50;99.90;;;;;;5029027;28;20025;-73
2023/01/28 10:04:00;;;;;;;7.57;5.57;;;1.60;99.90;;;;;;5022610;28;20489;-73
2023/01/28 10:06:55;;;;;;;8.48;5.53;;;1.80;99.90;;;;;;5035665;28;20084;-77
2023/01/28 10:09:40;;;;;;;6.85;4.80;;;1.90;99.90;;;;;;5023850;28;20025;-76
2023/01/28 10:12:45;;;;;;;6.88;4.97;;;1.90;99.90;;;;;;4988508;28;20026;-77
2023/01/28 10:15:25;;;;;;;7.10;4.80;;;2.00;99.90;;;;;;4993764;28;20041;-73
2023/01/28 10:18:00;;;;;;;7.03;4.88;;;1.90;99.90;;;;;;5017381;28;20037;-73
2023/01/28 10:20:35;;;;;;;6.93;5.65;;;1.90;99.90;;;;;;5019240;28;20064;-73
2023/01/28 10:23:23;;;;;;;7.72;5.45;;;1.90;99.90;;;;;;5012659;28;20423;-75
2023/01/28 10:25:49;;;;;;;7.00;4.82;;;2.00;99.90;;;;;;5023644;28;20029;-74
2023/01/28 10:28:22;;;;;;;15.32;7.53;;;2.10;99.90;;;;;;5022194;28;20028;-76
2023/01/28 10:30:49;;;;;;;8.15;5.72;;;2.50;99.90;;;;;;5000407;28;20029;-74
2023/01/28 10:33:41;;;;;;;10.38;6.30;;;2.40;99.90;;;;;;5022750;28;20029;-72
2023/01/28 10:36:09;;;;;;;13.30;6.30;;;2.50;99.90;;;;;;5003689;28;20041;-73
2023/01/28 10:38:35;;;;;;;8.65;6.38;;;2.50;99.90;;;;;;5024279;28;20124;-71
2023/01/28 10:41:02;;;;;;;9.70;6.80;;;2.50;99.90;;;;;;5043044;28;20489;-72
2023/01/28 10:43:37;;;;;;;12.70;7.53;;;2.50;99.90;;;;;;5027324;28;20033;-71
2023/01/28 10:46:27;;;;;;;11.02;7.50;;;2.40;99.90;;;;;;5028107;28;20029;-76
2023/01/28 10:48:58;;;;;;;14.90;7.07;;;2.40;99.90;;;;;;5003288;28;20035;-73
2023/01/28 10:51:36;;;;;;;12.38;7.30;;;2.40;99.90;;;;;;5011653;28;20030;-72
2023/01/28 10:54:16;;;;;;;11.82;7.30;;;2.50;99.90;;;;;;5004614;28;20032;-73
2023/01/28 10:56:43;;;;;;;12.00;7.97;;;2.40;99.90;;;;;;5018099;28;20048;-73
2023/01/28 10:59:40;;;;;;;10.23;7.50;;;2.40;99.90;;;;;;5036421;28;20501;-74
2023/01/28 11:02:31;;;;;;;13.20;7.32;;;2.40;99.90;;;;;;4991096;28;20037;-74
2023/01/28 11:05:24;;;;;;;12.13;8.02;;;2.40;99.90;;;;;;5028147;28;20025;-74
2023/01/28 11:08:01;;;;;;;14.70;8.57;;;2.50;99.90;;;;;;5029244;28;20026;-76
2023/01/28 11:10:32;;;;;;;9.30;7.38;;;2.40;99.90;;;;;;5023037;28;20041;-75
2023/01/28 11:13:03;;;;;;;9.20;7.65;;;2.50;99.90;;;;;;5007042;28;20048;-73
2023/01/28 11:15:30;;;;;;;11.52;8.05;;;2.40;99.90;;;;;;5021503;28;20053;-74
2023/01/28 11:18:14;;;;;;;10.73;7.18;;;2.40;99.90;;;;;;4995727;28;20045;-75
2023/01/28 11:20:44;;;;;;;11.60;7.43;;;2.40;99.90;;;;;;4989904;28;20021;-75
2023/01/28 11:23:26;;;;;;;9.52;7.43;;;2.30;99.90;;;;;;4989185;28;20033;-75
2023/01/28 11:26:23;;;;;;;12.45;7.95;;;2.30;99.90;;;;;;5047529;28;20500;-73
2023/01/28 11:28:49;;;;;;;13.68;8.60;;;2.40;99.90;;;;;;5023243;28;20033;-74
2023/01/28 11:31:16;;;;;;;12.02;8.38;;;2.50;99.90;;;;;;5007952;28;20045;-73
2023/01/28 11:33:56;;;;;;;17.58;8.52;;;2.50;99.90;;;;;;5038534;28;20030;-74
2023/01/28 11:36:25;;;;;;;12.38;7.85;;;2.60;99.90;;;;;;5039423;28;20582;-74
2023/01/28 11:38:54;;;;;;;12.20;8.40;;;2.60;99.90;;;;;;5022520;28;20591;-74
2023/01/28 11:41:31;;;;;;;12.98;8.05;;;2.70;99.90;;;;;;5022302;28;20473;-73
2023/01/28 11:44:25;;;;;;;12.30;8.77;;;2.70;99.90;;;;;;5020229;28;20025;-73
2023/01/28 11:47:11;;;;;;;13.15;8.13;;;2.60;99.90;;;;;;5007810;28;20354;-73
2023/01/28 11:49:49;;;;;;;12.45;8.45;;;2.70;99.90;;;;;;5024685;28;20037;-74
2023/01/28 11:52:33;;;;;;;12.45;8.70;;;2.80;99.90;;;;;;5019929;28;20030;-75
2023/01/28 11:55:24;;;;;;;14.43;9.40;;;2.80;99.90;;;;;;5013758;28;20038;-74
2023/01/28 11:58:12;;;;;;;10.90;8.43;;;2.80;99.90;;;;;;5004233;28;20026;-73
2023/01/28 12:00:51;;;;;;;10.93;8.35;;;2.60;99.90;;;;;;4997102;28;20029;-74
2023/01/28 12:03:26;;;;;;;12.52;8.65;;;2.50;99.90;;;;;;5018241;28;20493;-73
2023/01/28 12:05:56;;;;;;;13.60;7.95;;;2.40;99.90;;;;;;5016638;28;20438;-73
2023/01/28 12:08:46;;;;;;;13.55;8.77;;;2.40;99.90;;;;;;5022067;28;20052;-72
2023/01/28 12:12:10;;;;;;;15.68;8.90;;;2.40;99.90;;;;;;5002084;28;20486;-72
2023/01/28 12:14:28;;;;;;;13.20;8.35;;;2.40;99.90;;;;;;5023010;28;20103;-72
2023/01/28 12:17:06;;;;;;;12.13;8.55;;;2.40;99.90;;;;;;5019991;28;20044;-73
2023/01/28 12:19:51;;;;;;;16.13;9.52;;;2.30;99.90;;;;;;5023710;28;20033;-76
2023/01/28 12:22:35;;;;;;;15.73;9.98;;;2.30;99.90;;;;;;5021583;28;20097;-72
2023/01/28 12:25:12;;;;;;;17.58;9.45;;;2.40;99.90;;;;;;5025428;28;20022;-72
2023/01/28 12:27:47;;;;;;;12.70;8.85;;;2.40;99.90;;;;;;5020583;28;20026;-72
2023/01/28 12:30:18;;;;;;;13.23;9.50;;;2.50;99.90;;;;;;5023895;28;20103;-72
2023/01/28 12:33:08;;;;;;;18.00;9.77;;;2.60;99.90;;;;;;5031948;28;20798;-70
2023/01/28 12:36:01;;;;;;;18.08;9.30;;;2.70;99.90;;;;;;5021179;28;20032;-70
2023/01/28 12:38:47;;;;;;;18.40;9.52;;;2.80;99.90;;;;;;5023293;28;20545;-71
2023/01/28 12:41:21;;;;;;;14.23;9.30;;;2.90;99.90;;;;;;5027086;28;20640;-73
2023/01/28 12:44:11;;;;;;;11.65;8.85;;;2.90;99.90;;;;;;5024262;28;20030;-72
2023/01/28 12:46:51;;;;;;;17.00;10.00;;;3.10;99.90;;;;;;5031805;28;20125;-74
2023/01/28 12:49:38;;;;;;;14.07;9.50;;;3.10;99.90;;;;;;5016833;28;20056;-75
2023/01/28 12:52:25;;;;;;;14.48;9.48;;;3.20;99.90;;;;;;5022552;28;20033;-73
2023/01/28 12:55:02;;;;;;;13.77;9.43;;;3.20;99.90;;;;;;5006388;28;20026;-73
2023/01/28 12:57:31;;;;;;;14.98;10.38;;;3.30;99.90;;;;;;5020377;28;20029;-73
2023/01/28 13:00:18;;;;;;;13.80;9.90;;;3.30;99.90;;;;;;5006776;28;20034;-73
2023/01/28 13:02:54;;;;;;;16.15;10.25;;;3.20;99.90;;;;;;5021880;28;20029;-75
2023/01/28 13:05:29;;;;;;;16.70;10.75;;;3.20;99.90;;;;;;5016273;28;20048;-74
2023/01/28 13:08:01;;;;;;;18.02;10.38;;;3.20;99.90;;;;;;5018186;28;20080;-74
2023/01/28 13:10:40;;;;;;;17.08;9.82;;;3.20;99.90;;;;;;5026320;28;20036;-72
2023/01/28 13:13:12;;;;;;;15.27;10.32;;;3.20;99.90;;;;;;5001781;28;20033;-74
2023/01/28 13:15:40;;;;;;;16.52;10.43;;;3.20;99.90;;;;;;5011887;28;20037;-74
2023/01/28 13:18:06;;;;;;;15.07;10.57;;;3.10;99.90;;;;;;5006465;28;20064;-74
2023/01/28 13:20:49;;;;;;;16.02;10.23;;;3.10;99.90;;;;;;4989368;28;20489;-74
2023/01/28 13:23:25;;;;;;;15.55;11.40;;;3.00;99.90;;;;;;5020470;28;20401;-75
2023/01/28 13:25:53;;;;;;;19.35;11.93;;;2.90;99.90;;;;;;5003683;28;20091;-74
2023/01/28 13:28:32;;;;;;;17.40;10.93;;;2.80;99.90;;;;;;5005986;28;20375;-74
2023/01/28 13:31:08;;;;;;;19.88;11.23;;;2.80;99.90;;;;;;4994420;28;20453;-73
2023/01/28 13:33:37;;;;;;;18.40;12.02;;;2.70;99.90;;;;;;5028605;28;20053;-74
2023/01/28 13:36:22;;;;;;;23.83;12.18;;;2.70;99.90;;;;;;5034109;28;20104;-74
2023/01/28 13:39:00;;;;;;;19.67;12.68;;;2.70;99.90;;;;;;5024776;28;20026;-74
2023/01/28 13:41:41;;;;;;;18.48;11.45;;;2.80;99.90;;;;;;5025411;28;20032;-74
2023/01/28 13:44:25;;;;;;;19.73;12.32;;;2.90;99.90;;;;;;5045519;28;20043;-73
2023/01/28 13:46:52;;;;;;;17.58;11.55;;;3.00;99.90;;;;;;5029627;28;20061;-73